sensor_id;sensor_type;location;lat;lon;timestamp;P1;durP1;ratioP1;P2;durP2;ratioP2
84121;SDS011;74217;51.106;17.084;2024-01-16T00:00:09;8.55;;;6.28;;
84121;SDS011;74217;51.106;17.084;2024-01-16T00:03:17;7.78;;;6.82;;
84121;SDS011;74217;51.106;17.084;2024-01-16T00:06:05;8.10;;;6.38;;
84121;SDS011;74217;51.106;17.084;2024-01-16T00:08:51;9.52;;;7.03;;
84121;SDS011;74217;51.106;17.084;2024-01-16T00:11:42;8.90;;;6.28;;
84121;SDS011;74217;51.106;17.084;2024-01-16T00:14:29;7.40;;;6.03;;
84121;SDS011;74217;51.106;17.084;2024-01-16T00:17:16;10.75;;;6.95;;
84121;SDS011;74217;51.106;17.084;2024-01-16T00:20:03;8.43;;;5.32;;
84121;SDS011;74217;51.106;17.084;2024-01-16T00:22:52;9.85;;;7.03;;
84121;SDS011;74217;51.106;17.084;2024-01-16T00:25:41;8.50;;;7.80;;
84121;SDS011;74217;51.106;17.084;2024-01-16T00:28:28;6.47;;;5.05;;
84121;SDS011;74217;51.106;17.084;2024-01-16T00:31:18;3.80;;;3.25;;
84121;SDS011;74217;51.106;17.084;2024-01-16T00:34:05;4.28;;;3.92;;
84121;SDS011;74217;51.106;17.084;2024-01-16T00:36:52;4.18;;;2.67;;
84121;SDS011;74217;51.106;17.084;2024-01-16T00:39:40;3.92;;;3.63;;
84121;SDS011;74217;51.106;17.084;2024-01-16T00:42:26;3.40;;;2.97;;
84121;SDS011;74217;51.106;17.084;2024-01-16T00:45:14;3.65;;;3.22;;
84121;SDS011;74217;51.106;17.084;2024-01-16T00:48:03;3.97;;;3.67;;
84121;SDS011;74217;51.106;17.084;2024-01-16T00:50:52;3.65;;;3.35;;
84121;SDS011;74217;51.106;17.084;2024-01-16T00:53:41;4.32;;;3.72;;
84121;SDS011;74217;51.106;17.084;2024-01-16T00:56:28;4.85;;;3.13;;
84121;SDS011;74217;51.106;17.084;2024-01-16T00:59:18;5.40;;;3.08;;
84121;SDS011;74217;51.106;17.084;2024-01-16T01:02:05;4.35;;;2.22;;
84121;SDS011;74217;51.106;17.084;2024-01-16T01:04:56;3.88;;;3.45;;
84121;SDS011;74217;51.106;17.084;2024-01-16T01:07:43;3.70;;;2.80;;
84121;SDS011;74217;51.106;17.084;2024-01-16T01:10:30;3.95;;;2.78;;
84121;SDS011;74217;51.106;17.084;2024-01-16T01:13:17;3.85;;;3.13;;
84121;SDS011;74217;51.106;17.084;2024-01-16T01:16:04;4.80;;;3.22;;
84121;SDS011;74217;51.106;17.084;2024-01-16T01:18:52;6.10;;;4.07;;
84121;SDS011;74217;51.106;17.084;2024-01-16T01:21:40;4.82;;;2.95;;
84121;SDS011;74217;51.106;17.084;2024-01-16T01:24:27;4.97;;;3.72;;
84121;SDS011;74217;51.106;17.084;2024-01-16T01:27:14;4.15;;;2.72;;
84121;SDS011;74217;51.106;17.084;2024-01-16T01:30:01;6.63;;;4.13;;
84121;SDS011;74217;51.106;17.084;2024-01-16T01:32:50;4.75;;;4.40;;
84121;SDS011;74217;51.106;17.084;2024-01-16T01:35:37;4.95;;;3.42;;
84121;SDS011;74217;51.106;17.084;2024-01-16T01:38:26;3.75;;;3.03;;
84121;SDS011;74217;51.106;17.084;2024-01-16T01:41:13;3.63;;;3.10;;
84121;SDS011;74217;51.106;17.084;2024-01-16T01:44:02;4.82;;;2.85;;
84121;SDS011;74217;51.106;17.084;2024-01-16T01:46:50;4.72;;;2.70;;
84121;SDS011;74217;51.106;17.084;2024-01-16T01:49:40;3.72;;;3.28;;
84121;SDS011;74217;51.106;17.084;2024-01-16T01:52:28;4.40;;;3.03;;
84121;SDS011;74217;51.106;17.084;2024-01-16T01:55:16;4.45;;;3.67;;
84121;SDS011;74217;51.106;17.084;2024-01-16T01:58:03;7.00;;;3.80;;
84121;SDS011;74217;51.106;17.084;2024-01-16T02:00:52;8.98;;;5.13;;
84121;SDS011;74217;51.106;17.084;2024-01-16T02:03:43;6.15;;;5.18;;
84121;SDS011;74217;51.106;17.084;2024-01-16T02:06:30;5.55;;;3.85;;
84121;SDS011;74217;51.106;17.084;2024-01-16T02:09:18;7.60;;;3.92;;
84121;SDS011;74217;51.106;17.084;2024-01-16T02:12:05;6.90;;;4.28;;
84121;SDS011;74217;51.106;17.084;2024-01-16T02:14:53;7.43;;;4.82;;
84121;SDS011;74217;51.106;17.084;2024-01-16T02:17:40;4.88;;;3.83;;
84121;SDS011;74217;51.106;17.084;2024-01-16T02:20:28;5.20;;;3.80;;
84121;SDS011;74217;51.106;17.084;2024-01-16T02:23:15;4.65;;;4.22;;
84121;SDS011;74217;51.106;17.084;2024-01-16T02:26:16;4.20;;;3.60;;
84121;SDS011;74217;51.106;17.084;2024-01-16T02:29:02;6.40;;;3.75;;
84121;SDS011;74217;51.106;17.084;2024-01-16T02:31:53;6.15;;;3.95;;
84121;SDS011;74217;51.106;17.084;2024-01-16T02:34:40;6.82;;;4.82;;
84121;SDS011;74217;51.106;17.084;2024-01-16T02:37:28;5.78;;;4.25;;
84121;SDS011;74217;51.106;17.084;2024-01-16T02:40:17;3.25;;;2.60;;
84121;SDS011;74217;51.106;17.084;2024-01-16T02:43:04;5.30;;;3.78;;
84121;SDS011;74217;51.106;17.084;2024-01-16T02:45:51;5.05;;;4.47;;
84121;SDS011;74217;51.106;17.084;2024-01-16T02:48:40;5.40;;;2.83;;
84121;SDS011;74217;51.106;17.084;2024-01-16T02:54:13;4.20;;;3.83;;
84121;SDS011;74217;51.106;17.084;2024-01-16T02:57:02;5.55;;;3.10;;
84121;SDS011;74217;51.106;17.084;2024-01-16T03:00:02;5.85;;;3.45;;
84121;SDS011;74217;51.106;17.084;2024-01-16T03:02:52;5.95;;;2.83;;
84121;SDS011;74217;51.106;17.084;2024-01-16T03:05:39;5.78;;;3.92;;
84121;SDS011;74217;51.106;17.084;2024-01-16T03:08:26;7.03;;;4.07;;
84121;SDS011;74217;51.106;17.084;2024-01-16T03:11:13;8.15;;;4.55;;
84121;SDS011;74217;51.106;17.084;2024-01-16T03:14:03;5.32;;;4.00;;
84121;SDS011;74217;51.106;17.084;2024-01-16T03:16:51;8.38;;;5.75;;
84121;SDS011;74217;51.106;17.084;2024-01-16T03:19:41;6.70;;;4.10;;
84121;SDS011;74217;51.106;17.084;2024-01-16T03:22:30;5.50;;;5.00;;
84121;SDS011;74217;51.106;17.084;2024-01-16T03:25:20;5.65;;;4.60;;
84121;SDS011;74217;51.106;17.084;2024-01-16T03:28:07;6.50;;;3.83;;
84121;SDS011;74217;51.106;17.084;2024-01-16T03:30:56;7.38;;;3.53;;
84121;SDS011;74217;51.106;17.084;2024-01-16T03:33:43;6.95;;;4.55;;
84121;SDS011;74217;51.106;17.084;2024-01-16T03:36:33;11.20;;;5.43;;
84121;SDS011;74217;51.106;17.084;2024-01-16T03:39:20;5.28;;;4.05;;
84121;SDS011;74217;51.106;17.084;2024-01-16T03:42:07;8.73;;;4.28;;
84121;SDS011;74217;51.106;17.084;2024-01-16T03:44:54;5.85;;;3.15;;
84121;SDS011;74217;51.106;17.084;2024-01-16T03:47:41;3.58;;;2.97;;
84121;SDS011;74217;51.106;17.084;2024-01-16T03:50:29;6.38;;;4.15;;
84121;SDS011;74217;51.106;17.084;2024-01-16T03:53:18;5.03;;;4.60;;
84121;SDS011;74217;51.106;17.084;2024-01-16T03:56:05;5.57;;;4.68;;
84121;SDS011;74217;51.106;17.084;2024-01-16T03:58:54;3.97;;;2.97;;
84121;SDS011;74217;51.106;17.084;2024-01-16T04:01:41;5.30;;;4.80;;
84121;SDS011;74217;51.106;17.084;2024-01-16T04:04:29;4.07;;;3.67;;
84121;SDS011;74217;51.106;17.084;2024-01-16T04:07:17;4.22;;;3.80;;
84121;SDS011;74217;51.106;17.084;2024-01-16T04:10:07;5.45;;;4.00;;
84121;SDS011;74217;51.106;17.084;2024-01-16T04:15:41;4.75;;;3.13;;
84121;SDS011;74217;51.106;17.084;2024-01-16T04:18:29;6.20;;;4.18;;
84121;SDS011;74217;51.106;17.084;2024-01-16T04:21:21;4.65;;;4.05;;
84121;SDS011;74217;51.106;17.084;2024-01-16T04:24:08;4.07;;;3.67;;
84121;SDS011;74217;51.106;17.084;2024-01-16T04:26:55;6.90;;;3.83;;
84121;SDS011;74217;51.106;17.084;2024-01-16T04:29:42;3.42;;;3.10;;
84121;SDS011;74217;51.106;17.084;2024-01-16T04:32:29;3.30;;;3.00;;
84121;SDS011;74217;51.106;17.084;2024-01-16T04:35:16;3.80;;;3.47;;
84121;SDS011;74217;51.106;17.084;2024-01-16T04:38:06;3.25;;;2.95;;
84121;SDS011;74217;51.106;17.084;2024-01-16T04:40:54;4.43;;;3.67;;
84121;SDS011;74217;51.106;17.084;2024-01-16T04:43:43;4.97;;;4.60;;
84121;SDS011;74217;51.106;17.084;2024-01-16T04:46:31;6.53;;;2.88;;
84121;SDS011;74217;51.106;17.084;2024-01-16T04:49:19;6.65;;;4.68;;
84121;SDS011;74217;51.106;17.084;2024-01-16T04:52:06;3.47;;;3.13;;
84121;SDS011;74217;51.106;17.084;2024-01-16T04:54:54;4.65;;;2.63;;
84121;SDS011;74217;51.106;17.084;2024-01-16T04:57:40;3.13;;;2.85;;
84121;SDS011;74217;51.106;17.084;2024-01-16T05:00:28;3.42;;;3.13;;
84121;SDS011;74217;51.106;17.084;2024-01-16T05:03:15;3.47;;;2.97;;
84121;SDS011;74217;51.106;17.084;2024-01-16T05:06:02;3.50;;;3.20;;
84121;SDS011;74217;51.106;17.084;2024-01-16T05:08:49;5.82;;;2.92;;
84121;SDS011;74217;51.106;17.084;2024-01-16T05:11:36;5.32;;;4.57;;
84121;SDS011;74217;51.106;17.084;2024-01-16T05:17:10;4.60;;;3.58;;
84121;SDS011;74217;51.106;17.084;2024-01-16T05:19:58;4.72;;;3.40;;
84121;SDS011;74217;51.106;17.084;2024-01-16T05:22:48;3.83;;;3.50;;
84121;SDS011;74217;51.106;17.084;2024-01-16T05:25:35;5.95;;;3.63;;
84121;SDS011;74217;51.106;17.084;2024-01-16T05:28:22;4.40;;;3.20;;
84121;SDS011;74217;51.106;17.084;2024-01-16T05:31:09;3.72;;;2.75;;
84121;SDS011;74217;51.106;17.084;2024-01-16T05:33:58;4.47;;;3.10;;
84121;SDS011;74217;51.106;17.084;2024-01-16T05:36:44;3.45;;;2.85;;
84121;SDS011;74217;51.106;17.084;2024-01-16T05:39:32;6.30;;;3.80;;
84121;SDS011;74217;51.106;17.084;2024-01-16T05:42:19;5.70;;;3.00;;
84121;SDS011;74217;51.106;17.084;2024-01-16T05:45:06;4.32;;;3.40;;
84121;SDS011;74217;51.106;17.084;2024-01-16T05:47:53;3.72;;;3.00;;
84121;SDS011;74217;51.106;17.084;2024-01-16T05:50:41;6.25;;;3.03;;
84121;SDS011;74217;51.106;17.084;2024-01-16T05:53:29;4.97;;;4.50;;
84121;SDS011;74217;51.106;17.084;2024-01-16T05:56:16;5.47;;;5.00;;
84121;SDS011;74217;51.106;17.084;2024-01-16T06:01:51;4.25;;;3.75;;
84121;SDS011;74217;51.106;17.084;2024-01-16T06:04:38;5.32;;;3.80;;
84121;SDS011;74217;51.106;17.084;2024-01-16T06:07:25;4.95;;;3.92;;
84121;SDS011;74217;51.106;17.084;2024-01-16T06:12:59;5.00;;;3.17;;
84121;SDS011;74217;51.106;17.084;2024-01-16T06:15:46;3.80;;;3.38;;
84121;SDS011;74217;51.106;17.084;2024-01-16T06:18:34;5.28;;;3.30;;
84121;SDS011;74217;51.106;17.084;2024-01-16T06:21:22;3.28;;;2.58;;
84121;SDS011;74217;51.106;17.084;2024-01-16T06:24:09;4.80;;;3.67;;
84121;SDS011;74217;51.106;17.084;2024-01-16T06:26:58;6.57;;;3.55;;
84121;SDS011;74217;51.106;17.084;2024-01-16T06:29:45;6.85;;;3.60;;
84121;SDS011;74217;51.106;17.084;2024-01-16T06:32:32;5.53;;;3.38;;
84121;SDS011;74217;51.106;17.084;2024-01-16T06:35:22;4.60;;;3.63;;
84121;SDS011;74217;51.106;17.084;2024-01-16T06:38:10;6.07;;;4.15;;
84121;SDS011;74217;51.106;17.084;2024-01-16T06:40:57;4.18;;;3.58;;
84121;SDS011;74217;51.106;17.084;2024-01-16T06:43:45;6.13;;;3.95;;
84121;SDS011;74217;51.106;17.084;2024-01-16T06:46:32;4.07;;;3.70;;
84121;SDS011;74217;51.106;17.084;2024-01-16T06:49:19;6.80;;;3.80;;
84121;SDS011;74217;51.106;17.084;2024-01-16T06:52:08;6.57;;;4.63;;
84121;SDS011;74217;51.106;17.084;2024-01-16T06:54:55;5.35;;;4.15;;
84121;SDS011;74217;51.106;17.084;2024-01-16T06:57:42;4.70;;;3.42;;
84121;SDS011;74217;51.106;17.084;2024-01-16T07:00:30;6.50;;;3.45;;
84121;SDS011;74217;51.106;17.084;2024-01-16T07:03:17;5.55;;;4.43;;
84121;SDS011;74217;51.106;17.084;2024-01-16T07:06:05;3.25;;;2.85;;
84121;SDS011;74217;51.106;17.084;2024-01-16T07:08:53;3.60;;;2.95;;
84121;SDS011;74217;51.106;17.084;2024-01-16T07:11:40;3.20;;;2.70;;
84121;SDS011;74217;51.106;17.084;2024-01-16T07:14:28;3.70;;;3.17;;
84121;SDS011;74217;51.106;17.084;2024-01-16T07:20:04;6.47;;;3.33;;
84121;SDS011;74217;51.106;17.084;2024-01-16T07:22:51;4.88;;;3.47;;
84121;SDS011;74217;51.106;17.084;2024-01-16T07:25:38;4.13;;;3.25;;
84121;SDS011;74217;51.106;17.084;2024-01-16T07:28:27;3.83;;;3.05;;
84121;SDS011;74217;51.106;17.084;2024-01-16T07:31:12;5.55;;;4.13;;
84121;SDS011;74217;51.106;17.084;2024-01-16T07:33:58;6.90;;;4.10;;
84121;SDS011;74217;51.106;17.084;2024-01-16T07:36:47;6.85;;;4.45;;
84121;SDS011;74217;51.106;17.084;2024-01-16T07:39:32;6.28;;;5.03;;
84121;SDS011;74217;51.106;17.084;2024-01-16T07:42:19;4.68;;;3.88;;
84121;SDS011;74217;51.106;17.084;2024-01-16T07:45:08;5.70;;;4.43;;
84121;SDS011;74217;51.106;17.084;2024-01-16T07:47:53;4.50;;;3.42;;
84121;SDS011;74217;51.106;17.084;2024-01-16T07:50:44;6.07;;;4.60;;
84121;SDS011;74217;51.106;17.084;2024-01-16T07:53:30;7.15;;;4.40;;
84121;SDS011;74217;51.106;17.084;2024-01-16T07:56:19;6.40;;;4.80;;
84121;SDS011;74217;51.106;17.084;2024-01-16T07:59:03;12.48;;;7.60;;
84121;SDS011;74217;51.106;17.084;2024-01-16T08:01:54;9.50;;;6.72;;
84121;SDS011;74217;51.106;17.084;2024-01-16T08:04:39;7.93;;;5.72;;
84121;SDS011;74217;51.106;17.084;2024-01-16T08:07:30;6.00;;;4.63;;
84121;SDS011;74217;51.106;17.084;2024-01-16T08:10:15;5.88;;;4.53;;
84121;SDS011;74217;51.106;17.084;2024-01-16T08:13:01;4.93;;;4.38;;
84121;SDS011;74217;51.106;17.084;2024-01-16T08:15:47;7.13;;;4.07;;
84121;SDS011;74217;51.106;17.084;2024-01-16T08:18:36;7.75;;;5.13;;
84121;SDS011;74217;51.106;17.084;2024-01-16T08:21:21;6.43;;;4.70;;
84121;SDS011;74217;51.106;17.084;2024-01-16T08:24:06;5.18;;;4.05;;
84121;SDS011;74217;51.106;17.084;2024-01-16T08:26:51;7.05;;;4.18;;
84121;SDS011;74217;51.106;17.084;2024-01-16T08:29:43;6.05;;;3.90;;
84121;SDS011;74217;51.106;17.084;2024-01-16T08:32:34;5.65;;;3.95;;
84121;SDS011;74217;51.106;17.084;2024-01-16T08:35:18;6.15;;;4.00;;
84121;SDS011;74217;51.106;17.084;2024-01-16T08:38:06;5.43;;;4.13;;
84121;SDS011;74217;51.106;17.084;2024-01-16T08:43:39;6.35;;;3.67;;
84121;SDS011;74217;51.106;17.084;2024-01-16T08:46:26;7.10;;;4.18;;
84121;SDS011;74217;51.106;17.084;2024-01-16T08:49:16;4.60;;;4.20;;
84121;SDS011;74217;51.106;17.084;2024-01-16T08:52:03;5.38;;;4.20;;
84121;SDS011;74217;51.106;17.084;2024-01-16T08:54:51;5.93;;;4.18;;
84121;SDS011;74217;51.106;17.084;2024-01-16T08:57:37;8.32;;;3.90;;
84121;SDS011;74217;51.106;17.084;2024-01-16T09:00:26;7.00;;;5.10;;
84121;SDS011;74217;51.106;17.084;2024-01-16T09:03:13;6.20;;;4.78;;
84121;SDS011;74217;51.106;17.084;2024-01-16T09:06:03;6.50;;;6.00;;
84121;SDS011;74217;51.106;17.084;2024-01-16T09:08:50;4.53;;;3.80;;
84121;SDS011;74217;51.106;17.084;2024-01-16T09:11:38;5.68;;;4.25;;
84121;SDS011;74217;51.106;17.084;2024-01-16T09:14:25;4.55;;;4.15;;
84121;SDS011;74217;51.106;17.084;2024-01-16T09:17:13;5.60;;;4.05;;
84121;SDS011;74217;51.106;17.084;2024-01-16T09:22:47;6.90;;;5.57;;
84121;SDS011;74217;51.106;17.084;2024-01-16T09:25:34;5.95;;;4.10;;
84121;SDS011;74217;51.106;17.084;2024-01-16T09:28:21;7.00;;;4.97;;
84121;SDS011;74217;51.106;17.084;2024-01-16T10:03:44;4.22;;;3.88;;
84121;SDS011;74217;51.106;17.084;2024-01-16T10:06:30;5.70;;;3.55;;
84121;SDS011;74217;51.106;17.084;2024-01-16T10:09:18;5.60;;;3.80;;
84121;SDS011;74217;51.106;17.084;2024-01-16T10:12:08;5.38;;;4.63;;
84121;SDS011;74217;51.106;17.084;2024-01-16T10:14:55;5.18;;;4.68;;
84121;SDS011;74217;51.106;17.084;2024-01-16T10:17:43;6.28;;;5.05;;
84121;SDS011;74217;51.106;17.084;2024-01-16T10:20:32;5.85;;;4.03;;
84121;SDS011;74217;51.106;17.084;2024-01-16T10:26:17;5.40;;;4.20;;
84121;SDS011;74217;51.106;17.084;2024-01-16T10:29:05;6.07;;;2.90;;
84121;SDS011;74217;51.106;17.084;2024-01-16T10:31:50;7.00;;;3.67;;
84121;SDS011;74217;51.106;17.084;2024-01-16T10:34:41;4.93;;;3.35;;
84121;SDS011;74217;51.106;17.084;2024-01-16T10:37:26;4.15;;;3.50;;
84121;SDS011;74217;51.106;17.084;2024-01-16T10:40:19;5.78;;;4.03;;
84121;SDS011;74217;51.106;17.084;2024-01-16T10:45:52;5.03;;;3.63;;
84121;SDS011;74217;51.106;17.084;2024-01-16T10:49:01;3.92;;;3.58;;
84121;SDS011;74217;51.106;17.084;2024-01-16T10:51:50;4.60;;;3.72;;
84121;SDS011;74217;51.106;17.084;2024-01-16T10:54:37;6.35;;;5.78;;
84121;SDS011;74217;51.106;17.084;2024-01-16T10:57:33;3.78;;;3.35;;
84121;SDS011;74217;51.106;17.084;2024-01-16T11:00:20;5.93;;;4.43;;
84121;SDS011;74217;51.106;17.084;2024-01-16T11:03:11;5.88;;;4.15;;
84121;SDS011;74217;51.106;17.084;2024-01-16T11:08:52;6.28;;;4.57;;
84121;SDS011;74217;51.106;17.084;2024-01-16T11:11:39;5.30;;;4.07;;
84121;SDS011;74217;51.106;17.084;2024-01-16T11:14:28;6.53;;;4.20;;
84121;SDS011;74217;51.106;17.084;2024-01-16T11:20:05;4.28;;;3.20;;
84121;SDS011;74217;51.106;17.084;2024-01-16T11:22:54;5.47;;;4.57;;
84121;SDS011;74217;51.106;17.084;2024-01-16T11:25:46;5.07;;;4.22;;
84121;SDS011;74217;51.106;17.084;2024-01-16T11:28:30;5.50;;;4.57;;
84121;SDS011;74217;51.106;17.084;2024-01-16T11:31:34;5.20;;;4.68;;
84121;SDS011;74217;51.106;17.084;2024-01-16T11:37:31;6.57;;;4.95;;
84121;SDS011;74217;51.106;17.084;2024-01-16T11:46:18;6.05;;;5.20;;
84121;SDS011;74217;51.106;17.084;2024-01-16T11:49:05;6.60;;;4.28;;
84121;SDS011;74217;51.106;17.084;2024-01-16T11:51:54;6.85;;;3.90;;
84121;SDS011;74217;51.106;17.084;2024-01-16T11:54:41;4.57;;;4.18;;
84121;SDS011;74217;51.106;17.084;2024-01-16T11:57:45;5.85;;;4.82;;
84121;SDS011;74217;51.106;17.084;2024-01-16T12:00:49;4.88;;;4.45;;
84121;SDS011;74217;51.106;17.084;2024-01-16T12:03:36;5.68;;;4.32;;
84121;SDS011;74217;51.106;17.084;2024-01-16T12:06:23;6.53;;;4.22;;
84121;SDS011;74217;51.106;17.084;2024-01-16T12:09:16;7.70;;;4.13;;
84121;SDS011;74217;51.106;17.084;2024-01-16T12:12:06;4.60;;;3.55;;
84121;SDS011;74217;51.106;17.084;2024-01-16T12:17:50;6.78;;;4.85;;
84121;SDS011;74217;51.106;17.084;2024-01-16T12:20:36;7.35;;;5.20;;
84121;SDS011;74217;51.106;17.084;2024-01-16T12:23:24;7.25;;;5.30;;
84121;SDS011;74217;51.106;17.084;2024-01-16T12:29:05;6.75;;;5.70;;
84121;SDS011;74217;51.106;17.084;2024-01-16T12:32:06;7.38;;;4.57;;
84121;SDS011;74217;51.106;17.084;2024-01-16T12:34:53;6.93;;;4.40;;
84121;SDS011;74217;51.106;17.084;2024-01-16T12:37:40;9.25;;;5.65;;
84121;SDS011;74217;51.106;17.084;2024-01-16T12:40:28;9.13;;;5.70;;
84121;SDS011;74217;51.106;17.084;2024-01-16T12:43:16;6.70;;;5.10;;
84121;SDS011;74217;51.106;17.084;2024-01-16T12:46:05;8.25;;;4.75;;
84121;SDS011;74217;51.106;17.084;2024-01-16T12:49:04;7.60;;;4.63;;
84121;SDS011;74217;51.106;17.084;2024-01-16T12:58:34;7.97;;;4.63;;
84121;SDS011;74217;51.106;17.084;2024-01-16T13:04:18;5.30;;;3.97;;
84121;SDS011;74217;51.106;17.084;2024-01-16T13:07:05;7.30;;;6.15;;
84121;SDS011;74217;51.106;17.084;2024-01-16T13:10:11;8.15;;;6.35;;
84121;SDS011;74217;51.106;17.084;2024-01-16T13:13:16;6.68;;;5.40;;
84121;SDS011;74217;51.106;17.084;2024-01-16T13:16:08;7.20;;;5.80;;
84121;SDS011;74217;51.106;17.084;2024-01-16T13:19:00;6.20;;;4.60;;
84121;SDS011;74217;51.106;17.084;2024-01-16T13:21:50;6.00;;;5.35;;
84121;SDS011;74217;51.106;17.084;2024-01-16T13:24:39;7.10;;;6.50;;
84121;SDS011;74217;51.106;17.084;2024-01-16T13:27:29;6.65;;;4.32;;
84121;SDS011;74217;51.106;17.084;2024-01-16T13:30:14;4.80;;;4.40;;
84121;SDS011;74217;51.106;17.084;2024-01-16T13:33:04;4.22;;;3.83;;
84121;SDS011;74217;51.106;17.084;2024-01-16T13:35:49;4.50;;;3.95;;
84121;SDS011;74217;51.106;17.084;2024-01-16T13:38:40;5.82;;;4.13;;
84121;SDS011;74217;51.106;17.084;2024-01-16T13:41:25;8.52;;;5.22;;
84121;SDS011;74217;51.106;17.084;2024-01-16T13:44:16;6.65;;;5.18;;
84121;SDS011;74217;51.106;17.084;2024-01-16T13:47:03;5.97;;;4.18;;
84121;SDS011;74217;51.106;17.084;2024-01-16T13:55:57;8.82;;;5.65;;
84121;SDS011;74217;51.106;17.084;2024-01-16T13:58:42;5.25;;;4.07;;
84121;SDS011;74217;51.106;17.084;2024-01-16T14:01:27;6.75;;;4.97;;
84121;SDS011;74217;51.106;17.084;2024-01-16T14:04:17;7.00;;;6.10;;
84121;SDS011;74217;51.106;17.084;2024-01-16T14:07:01;9.10;;;4.32;;
84121;SDS011;74217;51.106;17.084;2024-01-16T14:09:47;5.93;;;4.88;;
84121;SDS011;74217;51.106;17.084;2024-01-16T14:12:32;7.22;;;5.60;;
84121;SDS011;74217;51.106;17.084;2024-01-16T14:15:19;8.52;;;5.20;;
84121;SDS011;74217;51.106;17.084;2024-01-16T14:18:08;7.43;;;4.63;;
84121;SDS011;74217;51.106;17.084;2024-01-16T14:20:53;6.68;;;4.72;;
84121;SDS011;74217;51.106;17.084;2024-01-16T14:23:39;8.10;;;4.45;;
84121;SDS011;74217;51.106;17.084;2024-01-16T14:26:29;7.68;;;5.70;;
84121;SDS011;74217;51.106;17.084;2024-01-16T14:29:14;8.02;;;4.82;;
84121;SDS011;74217;51.106;17.084;2024-01-16T14:32:02;8.93;;;6.10;;
84121;SDS011;74217;51.106;17.084;2024-01-16T14:34:47;6.25;;;5.35;;
84121;SDS011;74217;51.106;17.084;2024-01-16T14:37:31;6.32;;;5.32;;
84121;SDS011;74217;51.106;17.084;2024-01-16T14:40:21;7.90;;;5.13;;
84121;SDS011;74217;51.106;17.084;2024-01-16T14:43:11;6.80;;;5.63;;
84121;SDS011;74217;51.106;17.084;2024-01-16T14:45:59;5.07;;;4.45;;
84121;SDS011;74217;51.106;17.084;2024-01-16T14:51:33;6.88;;;4.93;;
84121;SDS011;74217;51.106;17.084;2024-01-16T14:54:20;9.10;;;5.85;;
84121;SDS011;74217;51.106;17.084;2024-01-16T14:57:09;10.77;;;7.45;;
84121;SDS011;74217;51.106;17.084;2024-01-16T14:59:57;7.57;;;6.60;;
84121;SDS011;74217;51.106;17.084;2024-01-16T15:02:47;8.38;;;5.97;;
84121;SDS011;74217;51.106;17.084;2024-01-16T15:05:36;9.27;;;6.22;;
84121;SDS011;74217;51.106;17.084;2024-01-16T15:08:23;11.63;;;7.03;;
84121;SDS011;74217;51.106;17.084;2024-01-16T15:11:12;9.38;;;6.47;;
84121;SDS011;74217;51.106;17.084;2024-01-16T15:13:59;10.27;;;5.97;;
84121;SDS011;74217;51.106;17.084;2024-01-16T15:16:46;9.10;;;7.05;;
84121;SDS011;74217;51.106;17.084;2024-01-16T15:19:36;9.57;;;7.22;;
84121;SDS011;74217;51.106;17.084;2024-01-16T15:22:23;10.25;;;7.05;;
84121;SDS011;74217;51.106;17.084;2024-01-16T15:25:12;11.23;;;8.35;;
84121;SDS011;74217;51.106;17.084;2024-01-16T15:28:00;7.93;;;6.20;;
84121;SDS011;74217;51.106;17.084;2024-01-16T15:30:45;11.68;;;7.00;;
84121;SDS011;74217;51.106;17.084;2024-01-16T15:33:35;13.30;;;7.13;;
84121;SDS011;74217;51.106;17.084;2024-01-16T15:36:22;10.93;;;6.18;;
84121;SDS011;74217;51.106;17.084;2024-01-16T15:39:10;9.77;;;6.55;;
84121;SDS011;74217;51.106;17.084;2024-01-16T15:42:00;8.85;;;6.57;;
84121;SDS011;74217;51.106;17.084;2024-01-16T15:44:48;8.93;;;6.03;;
84121;SDS011;74217;51.106;17.084;2024-01-16T15:47:38;9.02;;;6.10;;
84121;SDS011;74217;51.106;17.084;2024-01-16T15:50:25;8.85;;;6.80;;
84121;SDS011;74217;51.106;17.084;2024-01-16T15:53:13;7.78;;;5.80;;
84121;SDS011;74217;51.106;17.084;2024-01-16T15:56:01;8.88;;;5.93;;
84121;SDS011;74217;51.106;17.084;2024-01-16T15:58:50;9.95;;;5.38;;
84121;SDS011;74217;51.106;17.084;2024-01-16T16:01:40;8.43;;;6.30;;
84121;SDS011;74217;51.106;17.084;2024-01-16T16:04:28;10.68;;;7.90;;
84121;SDS011;74217;51.106;17.084;2024-01-16T16:07:15;12.88;;;6.88;;
84121;SDS011;74217;51.106;17.084;2024-01-16T16:10:02;12.77;;;7.50;;
84121;SDS011;74217;51.106;17.084;2024-01-16T16:12:50;14.90;;;10.25;;
84121;SDS011;74217;51.106;17.084;2024-01-16T16:15:39;13.98;;;9.65;;
84121;SDS011;74217;51.106;17.084;2024-01-16T16:18:25;13.90;;;8.75;;
84121;SDS011;74217;51.106;17.084;2024-01-16T16:21:10;17.58;;;8.90;;
84121;SDS011;74217;51.106;17.084;2024-01-16T16:23:55;10.38;;;7.43;;
84121;SDS011;74217;51.106;17.084;2024-01-16T16:26:41;12.55;;;7.72;;
84121;SDS011;74217;51.106;17.084;2024-01-16T16:29:28;12.82;;;6.90;;
84121;SDS011;74217;51.106;17.084;2024-01-16T16:32:14;12.73;;;6.70;;
84121;SDS011;74217;51.106;17.084;2024-01-16T16:34:59;11.93;;;6.40;;
84121;SDS011;74217;51.106;17.084;2024-01-16T16:37:48;9.43;;;7.07;;
84121;SDS011;74217;51.106;17.084;2024-01-16T16:40:38;8.95;;;7.65;;
84121;SDS011;74217;51.106;17.084;2024-01-16T16:43:23;11.82;;;8.98;;
84121;SDS011;74217;51.106;17.084;2024-01-16T16:46:14;11.70;;;7.82;;
84121;SDS011;74217;51.106;17.084;2024-01-16T16:49:03;16.05;;;9.55;;
84121;SDS011;74217;51.106;17.084;2024-01-16T16:51:55;14.02;;;9.23;;
84121;SDS011;74217;51.106;17.084;2024-01-16T16:54:40;11.95;;;8.95;;
84121;SDS011;74217;51.106;17.084;2024-01-16T16:57:34;18.20;;;9.20;;
84121;SDS011;74217;51.106;17.084;2024-01-16T17:00:19;16.00;;;9.63;;
84121;SDS011;74217;51.106;17.084;2024-01-16T17:03:11;15.32;;;10.00;;
84121;SDS011;74217;51.106;17.084;2024-01-16T17:05:55;13.73;;;8.82;;
84121;SDS011;74217;51.106;17.084;2024-01-16T17:08:41;14.10;;;9.27;;
84121;SDS011;74217;51.106;17.084;2024-01-16T17:11:28;13.68;;;10.90;;
84121;SDS011;74217;51.106;17.084;2024-01-16T17:14:15;18.75;;;10.57;;
84121;SDS011;74217;51.106;17.084;2024-01-16T17:17:00;21.45;;;12.07;;
84121;SDS011;74217;51.106;17.084;2024-01-16T17:19:49;21.02;;;12.00;;
84121;SDS011;74217;51.106;17.084;2024-01-16T17:22:34;19.70;;;14.57;;
84121;SDS011;74217;51.106;17.084;2024-01-16T17:25:25;19.73;;;12.70;;
84121;SDS011;74217;51.106;17.084;2024-01-16T17:28:14;25.10;;;14.52;;
84121;SDS011;74217;51.106;17.084;2024-01-16T17:31:01;21.80;;;12.02;;
84121;SDS011;74217;51.106;17.084;2024-01-16T17:33:48;23.05;;;13.35;;
84121;SDS011;74217;51.106;17.084;2024-01-16T17:36:33;24.02;;;14.13;;
84121;SDS011;74217;51.106;17.084;2024-01-16T17:39:23;27.25;;;13.07;;
84121;SDS011;74217;51.106;17.084;2024-01-16T17:42:09;27.50;;;16.40;;
84121;SDS011;74217;51.106;17.084;2024-01-16T17:44:58;28.70;;;17.90;;
84121;SDS011;74217;51.106;17.084;2024-01-16T17:47:46;30.48;;;16.00;;
84121;SDS011;74217;51.106;17.084;2024-01-16T17:53:21;30.50;;;14.43;;
84121;SDS011;74217;51.106;17.084;2024-01-16T17:56:08;33.47;;;18.40;;
84121;SDS011;74217;51.106;17.084;2024-01-16T17:58:58;27.65;;;15.75;;
84121;SDS011;74217;51.106;17.084;2024-01-16T18:01:48;33.90;;;18.15;;
84121;SDS011;74217;51.106;17.084;2024-01-16T18:04:36;31.52;;;17.70;;
84121;SDS011;74217;51.106;17.084;2024-01-16T18:07:25;32.13;;;19.00;;
84121;SDS011;74217;51.106;17.084;2024-01-16T18:10:11;31.38;;;16.05;;
84121;SDS011;74217;51.106;17.084;2024-01-16T18:13:00;29.45;;;18.60;;
84121;SDS011;74217;51.106;17.084;2024-01-16T18:15:47;33.70;;;17.85;;